Time;durP1;ratioP1;P1;durP2;ratioP2;P2;SDS_P1;SDS_P2;PMS_P1;PMS_P2;Temp;Humidity;BMP_temperature;BMP_pressure;BME280_temperature;BME280_humidity;BME280_pressure;Samples;Min_cycle;Max_cycle;Signal;HPM_P1;HPM_P2
2021/05/03 00:01:49;;;;;;;4.80;4.30;;;7.60;90.70;;;;;;5103374;28;27415;-56
2021/05/03 00:04:34;;;;;;;4.80;4.28;;;7.60;90.50;;;;;;5103464;28;27528;-53
2021/05/03 00:07:19;;;;;;;7.00;4.68;;;7.60;90.70;;;;;;5102666;28;27506;-54
2021/05/03 00:10:04;;;;;;;4.78;4.28;;;7.50;90.70;;;;;;5102936;28;27508;-56
2021/05/03 00:12:48;;;;;;;4.82;4.03;;;7.50;91.00;;;;;;5102632;28;27471;-54
2021/05/03 00:15:33;;;;;;;5.50;4.72;;;7.40;90.70;;;;;;5103012;28;27472;-55
2021/05/03 00:18:18;;;;;;;7.30;5.32;;;7.40;90.90;;;;;;5099042;28;27450;-55
2021/05/03 00:21:03;;;;;;;6.13;4.63;;;7.40;91.00;;;;;;5088150;27;27532;-56
2021/05/03 00:23:48;;;;;;;5.22;4.50;;;7.40;91.00;;;;;;5105967;28;27479;-52
2021/05/03 00:26:33;;;;;;;8.27;4.80;;;7.30;91.40;;;;;;5106301;28;27389;-55
2021/05/03 00:29:17;;;;;;;7.00;4.25;;;7.30;90.90;;;;;;5106665;28;27466;-56
2021/05/03 00:32:02;;;;;;;6.38;4.25;;;7.30;91.00;;;;;;5105725;28;27549;-55
2021/05/03 00:34:47;;;;;;;5.90;4.82;;;7.20;90.90;;;;;;5106731;28;27446;-57
2021/05/03 00:37:31;;;;;;;5.72;5.10;;;7.20;91.30;;;;;;5106668;28;27392;-57
2021/05/03 00:40:16;;;;;;;10.52;4.97;;;7.20;90.90;;;;;;5106238;28;27992;-54
2021/05/03 00:43:01;;;;;;;7.80;5.32;;;7.10;91.20;;;;;;5106601;28;27454;-53
2021/05/03 00:45:46;;;;;;;6.38;4.13;;;7.10;91.30;;;;;;5105846;28;27420;-56
2021/05/03 00:48:31;;;;;;;6.68;4.97;;;7.10;91.20;;;;;;5106548;28;27450;-51
2021/05/03 00:51:16;;;;;;;6.57;4.80;;;7.00;90.90;;;;;;5102102;28;27438;-55
2021/05/03 00:54:01;;;;;;;7.43;4.90;;;7.00;91.00;;;;;;5106190;28;27411;-55
2021/05/03 00:56:46;;;;;;;7.38;4.82;;;7.00;91.10;;;;;;5106179;28;27431;-54
2021/05/03 00:59:31;;;;;;;7.25;5.20;;;7.00;91.30;;;;;;5106400;28;27456;-55
2021/05/03 01:02:16;;;;;;;5.90;4.47;;;7.00;91.30;;;;;;5105561;28;27877;-55
2021/05/03 01:05:01;;;;;;;7.30;5.32;;;7.00;91.30;;;;;;5106027;28;27431;-51
2021/05/03 01:07:49;;;;;;;6.43;4.90;;;7.00;91.40;;;;;;5105678;28;27525;-56
2021/05/03 01:10:33;;;;;;;6.15;4.93;;;6.90;91.00;;;;;;5105691;28;27406;-55
2021/05/03 01:13:18;;;;;;;8.98;5.65;;;6.90;91.50;;;;;;5105075;28;27864;-55
2021/05/03 01:16:03;;;;;;;6.00;5.00;;;6.90;91.30;;;;;;5106037;28;27407;-55
2021/05/03 01:18:48;;;;;;;6.97;5.47;;;6.90;91.40;;;;;;5090633;28;27536;-55
2021/05/03 01:21:33;;;;;;;6.47;5.68;;;6.80;91.30;;;;;;5106147;28;27442;-55
2021/05/03 01:24:18;;;;;;;6.88;6.00;;;6.80;91.60;;;;;;5105972;28;27474;-55
2021/05/03 01:27:03;;;;;;;7.13;5.47;;;6.80;91.10;;;;;;5104765;28;27425;-54
2021/05/03 01:29:48;;;;;;;6.40;5.20;;;6.70;91.20;;;;;;5104723;28;27482;-55
2021/05/03 01:32:32;;;;;;;7.57;5.40;;;6.70;90.90;;;;;;5104685;27;27481;-58
2021/05/03 01:35:17;;;;;;;9.57;5.47;;;6.70;90.90;;;;;;5105081;28;27652;-55
2021/05/03 01:38:02;;;;;;;6.50;5.43;;;6.70;91.10;;;;;;5105493;28;27534;-55
2021/05/03 01:40:47;;;;;;;6.30;5.25;;;6.60;90.90;;;;;;5105480;28;27465;-55
2021/05/03 01:43:33;;;;;;;6.70;5.05;;;6.60;91.10;;;;;;5104864;28;27426;-52
2021/05/03 01:46:17;;;;;;;6.18;5.25;;;6.60;91.10;;;;;;5104819;28;27469;-51
2021/05/03 01:49:03;;;;;;;10.23;5.63;;;6.60;91.60;;;;;;5101367;28;27465;-56
2021/05/03 01:51:48;;;;;;;7.82;5.82;;;6.50;91.10;;;;;;5105389;28;27350;-55
2021/05/03 01:54:33;;;;;;;6.50;5.20;;;6.50;91.30;;;;;;5105165;28;27408;-55
2021/05/03 01:57:18;;;;;;;8.73;5.50;;;6.50;91.10;;;;;;5104381;28;27973;-55
2021/05/03 02:00:05;;;;;;;8.32;6.10;;;6.50;91.30;;;;;;5090079;28;27437;-55
2021/05/03 02:02:50;;;;;;;8.10;5.55;;;6.50;91.70;;;;;;5104452;28;27438;-53
2021/05/03 02:05:34;;;;;;;7.78;5.70;;;6.50;91.30;;;;;;5104302;28;27433;-55
2021/05/03 02:08:20;;;;;;;7.47;5.53;;;6.50;91.00;;;;;;5105084;28;27469;-53
2021/05/03 02:11:04;;;;;;;7.28;5.95;;;6.40;91.10;;;;;;5104856;28;27415;-55
2021/05/03 02:13:49;;;;;;;7.60;5.88;;;6.40;91.40;;;;;;5101762;28;27434;-55
2021/05/03 02:16:34;;;;;;;6.72;5.70;;;6.40;91.60;;;;;;5105213;28;27389;-53
2021/05/03 02:19:19;;;;;;;8.57;6.68;;;6.40;91.30;;;;;;5104794;28;27871;-56
2021/05/03 02:22:03;;;;;;;7.43;6.55;;;6.40;91.60;;;;;;5105066;28;27461;-54
2021/05/03 02:24:48;;;;;;;7.47;6.30;;;6.40;91.20;;;;;;5104827;28;27422;-56
2021/05/03 02:27:33;;;;;;;7.60;6.57;;;6.30;91.50;;;;;;5102439;28;27502;-56
2021/05/03 02:30:18;;;;;;;8.57;5.40;;;6.30;91.40;;;;;;5104272;28;27454;-53
2021/05/03 02:33:03;;;;;;;8.25;6.40;;;6.30;91.20;;;;;;5104791;28;27567;-55
2021/05/03 02:35:49;;;;;;;8.18;6.78;;;6.30;91.40;;;;;;5104835;28;27356;-55
2021/05/03 02:38:34;;;;;;;6.90;5.85;;;6.30;91.60;;;;;;5100735;28;27439;-55
2021/05/03 02:41:19;;;;;;;9.45;6.80;;;6.30;91.80;;;;;;5103636;28;27505;-55
2021/05/03 02:44:04;;;;;;;7.43;6.60;;;6.20;91.60;;;;;;5104392;27;27480;-54
2021/05/03 02:46:49;;;;;;;8.27;6.72;;;6.20;91.50;;;;;;5104649;28;27488;-55
2021/05/03 02:49:34;;;;;;;7.95;6.32;;;6.20;91.20;;;;;;5104252;28;27419;-54
2021/05/03 02:52:19;;;;;;;7.50;6.47;;;6.20;91.30;;;;;;5104214;28;28012;-54
2021/05/03 02:55:05;;;;;;;7.20;6.03;;;6.20;91.50;;;;;;5104239;28;27428;-55
2021/05/03 02:57:50;;;;;;;7.57;6.45;;;6.20;91.80;;;;;;5103149;28;27447;-55
2021/05/03 03:00:35;;;;;;;8.45;7.07;;;6.20;91.50;;;;;;5104012;28;27442;-55
2021/05/03 03:03:20;;;;;;;8.13;7.05;;;6.10;91.40;;;;;;5104114;28;27988;-55
2021/05/03 03:06:05;;;;;;;9.10;7.63;;;6.10;91.40;;;;;;5103437;28;27426;-55
2021/05/03 03:08:49;;;;;;;7.95;6.22;;;6.10;91.60;;;;;;5104297;28;27431;-53
2021/05/03 03:11:33;;;;;;;8.35;7.07;;;6.10;91.40;;;;;;5103954;28;27462;-54
2021/05/03 03:14:19;;;;;;;7.88;6.72;;;6.10;91.50;;;;;;5100638;28;27466;-55
2021/05/03 03:17:04;;;;;;;7.82;6.40;;;6.00;91.20;;;;;;5103827;28;27419;-55
2021/05/03 03:19:49;;;;;;;10.10;6.40;;;6.00;91.20;;;;;;5104161;28;27419;-56
2021/05/03 03:22:34;;;;;;;8.95;6.88;;;6.00;90.70;;;;;;5104031;28;27450;-56
2021/05/03 03:25:19;;;;;;;7.68;6.32;;;6.00;91.10;;;;;;5103263;28;27593;-54
2021/05/03 03:28:04;;;;;;;8.90;6.45;;;6.00;91.20;;;;;;5103263;28;27485;-56
2021/05/03 03:30:50;;;;;;;9.65;6.90;;;6.00;91.10;;;;;;5103009;28;27473;-55
2021/05/03 03:33:35;;;;;;;8.25;6.60;;;6.00;91.00;;;;;;5103926;28;27473;-55
2021/05/03 03:36:19;;;;;;;8.48;7.20;;;6.00;91.00;;;;;;5102760;28;27514;-56
2021/05/03 03:39:06;;;;;;;9.50;7.28;;;6.00;91.30;;;;;;5102763;28;27571;-55
2021/05/03 03:41:50;;;;;;;12.05;7.20;;;5.90;91.00;;;;;;5102780;28;27379;-56
2021/05/03 03:44:35;;;;;;;7.43;6.60;;;5.90;91.30;;;;;;5103551;28;27345;-56
2021/05/03 03:47:20;;;;;;;10.48;6.75;;;5.90;91.00;;;;;;5103471;28;27474;-55
2021/05/03 03:50:05;;;;;;;10.93;7.35;;;5.90;91.30;;;;;;5102504;28;27429;-55
2021/05/03 03:52:50;;;;;;;8.93;7.65;;;5.90;90.80;;;;;;5103801;28;27358;-56
2021/05/03 03:55:35;;;;;;;8.95;6.82;;;5.90;91.40;;;;;;5100391;28;27340;-55
2021/05/03 03:58:20;;;;;;;9.52;7.35;;;5.80;91.00;;;;;;5103971;28;27857;-54
2021/05/03 04:01:04;;;;;;;9.43;7.38;;;5.90;91.20;;;;;;5103717;28;27478;-55
2021/05/03 04:03:54;;;;;;;8.57;6.93;;;5.80;91.40;;;;;;5104474;28;27482;-54
2021/05/03 04:06:46;;;;;;;10.52;7.82;;;5.80;91.10;;;;;;5090383;28;27377;-56
2021/05/03 04:09:44;;;;;;;8.95;7.20;;;5.80;91.10;;;;;;5104495;28;27331;-55
2021/05/03 04:27:59;;;;;;;10.23;7.65;;;5.70;91.50;;;;;;5061161;28;27511;-55
2021/05/03 04:30:44;;;;;;;9.07;7.03;;;5.70;91.30;;;;;;5061634;28;27527;-56
2021/05/03 04:33:29;;;;;;;10.38;7.85;;;5.70;91.10;;;;;;5061030;28;27543;-56
2021/05/03 04:36:14;;;;;;;10.43;7.15;;;5.70;91.40;;;;;;5061978;28;27454;-55
2021/05/03 04:38:58;;;;;;;8.75;7.50;;;5.70;91.40;;;;;;5047656;28;27516;-55
2021/05/03 04:41:43;;;;;;;8.75;7.38;;;5.70;91.00;;;;;;5061554;28;27465;-55
2021/05/03 04:44:28;;;;;;;8.85;7.30;;;5.70;91.30;;;;;;5061593;28;27519;-58
2021/05/03 04:47:12;;;;;;;9.52;7.22;;;5.70;91.30;;;;;;5061285;28;27584;-54
2021/05/03 04:49:58;;;;;;;10.60;7.57;;;5.70;91.40;;;;;;5061498;28;27531;-55
2021/05/03 04:52:43;;;;;;;10.25;7.82;;;5.70;91.30;;;;;;5061719;28;27512;-55
2021/05/03 04:55:28;;;;;;;10.23;7.75;;;5.80;91.10;;;;;;5061777;28;27483;-54
2021/05/03 04:58:13;;;;;;;14.30;8.02;;;5.70;91.30;;;;;;5078624;28;27465;-55
2021/05/03 05:00:58;;;;;;;9.77;7.45;;;5.80;91.50;;;;;;5104070;28;27406;-55
2021/05/03 05:03:43;;;;;;;9.45;7.82;;;5.80;91.60;;;;;;5103618;28;27541;-55
2021/05/03 05:06:27;;;;;;;8.80;7.40;;;5.80;91.70;;;;;;5103595;28;27981;-55
2021/05/03 05:09:12;;;;;;;10.52;8.65;;;5.80;91.70;;;;;;5105094;28;27548;-55
2021/05/03 05:11:57;;;;;;;8.70;6.85;;;5.80;91.70;;;;;;5107187;28;27419;-56
2021/05/03 05:14:42;;;;;;;9.20;7.75;;;5.80;91.50;;;;;;5107041;28;27398;-55
2021/05/03 05:17:27;;;;;;;11.02;8.48;;;5.90;91.90;;;;;;5106994;28;27844;-57
2021/05/03 05:20:12;;;;;;;10.25;8.00;;;5.90;91.80;;;;;;5107289;28;27453;-56
2021/05/03 05:22:56;;;;;;;11.77;8.50;;;5.90;92.00;;;;;;5107313;28;27433;-56
2021/05/03 05:25:40;;;;;;;10.73;8.30;;;5.90;91.70;;;;;;5107216;28;27455;-56
2021/05/03 05:28:25;;;;;;;9.45;7.22;;;6.00;91.50;;;;;;5106928;28;27383;-55
2021/05/03 05:31:10;;;;;;;14.60;8.00;;;6.00;91.70;;;;;;5106467;27;27453;-56
2021/05/03 05:33:55;;;;;;;14.38;8.57;;;6.10;92.00;;;;;;5103602;28;27417;-58
2021/05/03 05:36:39;;;;;;;12.73;8.10;;;6.10;91.50;;;;;;5107114;28;27375;-55
2021/05/03 05:39:24;;;;;;;11.43;8.68;;;6.20;91.40;;;;;;5106650;28;27363;-59
2021/05/03 05:42:09;;;;;;;10.35;8.18;;;6.30;91.50;;;;;;5106191;28;27382;-55
2021/05/03 05:44:53;;;;;;;9.63;7.45;;;6.40;91.80;;;;;;5106892;28;27329;-55
2021/05/03 05:47:38;;;;;;;10.55;8.65;;;6.50;91.40;;;;;;5106894;28;27375;-57
2021/05/03 05:50:22;;;;;;;11.50;8.98;;;6.50;91.70;;;;;;5103186;28;27355;-56
2021/05/03 05:53:07;;;;;;;12.52;8.43;;;6.60;91.20;;;;;;5106416;28;27324;-55
2021/05/03 05:55:51;;;;;;;10.52;8.60;;;6.70;91.40;;;;;;5106019;28;27396;-55
2021/05/03 05:58:35;;;;;;;11.43;8.68;;;6.80;91.40;;;;;;5106799;28;27370;-55
2021/05/03 06:01:22;;;;;;;13.32;8.77;;;6.80;91.60;;;;;;5106357;28;27974;-57
2021/05/03 06:04:06;;;;;;;11.82;9.90;;;6.80;91.50;;;;;;5106553;28;27314;-55
2021/05/03 06:06:52;;;;;;;11.80;8.98;;;6.90;91.50;;;;;;5106249;28;27365;-57
2021/05/03 06:09:37;;;;;;;12.30;9.45;;;7.00;91.70;;;;;;5105909;28;27323;-55
2021/05/03 06:12:21;;;;;;;14.02;9.98;;;7.10;91.70;;;;;;5106395;28;27371;-55
2021/05/03 06:15:07;;;;;;;12.05;9.07;;;7.20;91.80;;;;;;5103099;28;27320;-56
2021/05/03 06:17:51;;;;;;;14.73;10.57;;;7.40;91.80;;;;;;5102346;28;27431;-56
2021/05/03 06:20:36;;;;;;;15.93;11.05;;;7.60;91.40;;;;;;5105965;27;27319;-55
2021/05/03 06:23:20;;;;;;;16.08;11.52;;;7.90;91.20;;;;;;5106253;28;28057;-56
2021/05/03 06:26:05;;;;;;;15.30;11.70;;;8.10;90.70;;;;;;5105766;28;27407;-56
2021/05/03 06:28:49;;;;;;;18.10;13.07;;;8.50;88.30;;;;;;5106251;28;27446;-55
2021/05/03 06:31:34;;;;;;;16.70;12.43;;;9.00;81.30;;;;;;5105117;28;27459;-55
2021/05/03 06:34:19;;;;;;;16.17;12.02;;;9.40;79.00;;;;;;5102776;28;27411;-54
2021/05/03 06:37:04;;;;;;;12.98;10.77;;;9.80;77.40;;;;;;5105335;28;27534;-55
2021/05/03 06:39:48;;;;;;;14.68;11.13;;;10.20;76.50;;;;;;5105781;28;27465;-53
2021/05/03 06:42:33;;;;;;;13.82;10.95;;;10.50;75.90;;;;;;5105914;28;27415;-54
2021/05/03 06:45:20;;;;;;;13.82;9.63;;;10.80;75.20;;;;;;5105827;28;27466;-54
2021/05/03 06:48:07;;;;;;;12.23;9.57;;;11.20;73.60;;;;;;5105645;28;27484;-56
2021/05/03 06:50:52;;;;;;;13.88;10.18;;;11.50;73.10;;;;;;5105638;28;27418;-54
2021/05/03 06:53:37;;;;;;;13.48;10.30;;;11.70;72.30;;;;;;5101784;28;27388;-53
2021/05/03 06:56:21;;;;;;;15.10;10.43;;;12.00;72.00;;;;;;5105673;28;27950;-55
2021/05/03 06:59:06;;;;;;;12.02;9.13;;;12.20;71.50;;;;;;5105682;28;27384;-53
2021/05/03 07:01:51;;;;;;;14.85;9.40;;;12.50;71.30;;;;;;5104968;28;27363;-56
2021/05/03 07:04:37;;;;;;;11.13;9.45;;;12.80;71.20;;;;;;5105277;28;27389;-54
2021/05/03 07:07:22;;;;;;;12.77;10.35;;;12.90;71.40;;;;;;5101542;28;27410;-54
2021/05/03 07:10:07;;;;;;;11.75;9.75;;;13.00;72.40;;;;;;5105413;28;27503;-58
2021/05/03 07:12:52;;;;;;;14.30;9.15;;;13.00;71.70;;;;;;5105282;28;27305;-51
2021/05/03 07:15:36;;;;;;;12.25;9.80;;;13.10;71.60;;;;;;5104432;28;26975;-54
2021/05/03 07:18:21;;;;;;;13.57;9.45;;;13.20;71.60;;;;;;5105120;28;27374;-54
2021/05/03 07:21:06;;;;;;;11.40;9.55;;;13.40;72.00;;;;;;5105041;28;27516;-56
2021/05/03 07:23:51;;;;;;;12.48;9.27;;;13.70;69.40;;;;;;5104398;28;27337;-52
2021/05/03 07:26:35;;;;;;;10.68;9.50;;;14.10;70.80;;;;;;5103855;28;27403;-53
2021/05/03 07:29:20;;;;;;;13.00;9.25;;;14.50;70.40;;;;;;5101585;28;27469;-53
2021/05/03 07:32:05;;;;;;;14.48;8.90;;;14.90;67.00;;;;;;5103647;28;27418;-55
2021/05/03 07:34:50;;;;;;;10.73;9.27;;;15.30;66.80;;;;;;5104972;28;27466;-53
2021/05/03 07:37:34;;;;;;;10.80;9.35;;;15.60;66.30;;;;;;5101592;28;27407;-54
2021/05/03 07:40:19;;;;;;;10.75;9.18;;;15.80;65.90;;;;;;5104994;28;28062;-55
2021/05/03 07:43:04;;;;;;;11.77;9.25;;;16.10;66.50;;;;;;5101774;28;27450;-54
2021/05/03 07:45:48;;;;;;;11.63;8.93;;;16.40;64.20;;;;;;5105022;28;27469;-54
2021/05/03 07:48:32;;;;;;;14.88;8.63;;;16.70;64.00;;;;;;5104714;28;27434;-55
2021/05/03 07:51:17;;;;;;;9.35;7.80;;;17.00;62.80;;;;;;5075242;28;27426;-57
2021/05/03 07:54:02;;;;;;;10.15;8.32;;;17.30;61.30;;;;;;5104530;28;27518;-57
2021/05/03 07:56:50;;;;;;;13.60;9.32;;;17.50;61.90;;;;;;5104899;28;27400;-55
2021/05/03 07:59:35;;;;;;;8.88;7.78;;;17.80;60.10;;;;;;5104430;28;27383;-54
2021/05/03 08:02:19;;;;;;;13.88;8.02;;;18.10;59.10;;;;;;5104507;28;27865;-54
2021/05/03 08:05:04;;;;;;;12.40;9.23;;;18.30;60.00;;;;;;5104748;28;27411;-58
2021/05/03 08:07:48;;;;;;;10.18;8.30;;;18.50;58.50;;;;;;5104023;28;27544;-53
2021/05/03 08:10:33;;;;;;;11.32;8.07;;;18.70;57.50;;;;;;5104173;28;27434;-53
2021/05/03 08:13:18;;;;;;;8.95;7.65;;;18.90;57.80;;;;;;5104387;28;27899;-58
2021/05/03 08:16:05;;;;;;;8.80;7.28;;;19.10;57.20;;;;;;5104361;28;27423;-55
2021/05/03 08:18:50;;;;;;;7.43;6.63;;;19.30;55.80;;;;;;5104725;28;27524;-55
2021/05/03 08:21:34;;;;;;;8.70;6.82;;;19.40;55.80;;;;;;5104592;28;27438;-54
2021/05/03 08:24:25;;;;;;;12.10;6.50;;;19.60;57.00;;;;;;5104562;28;27426;-59
2021/05/03 08:27:10;;;;;;;8.80;7.10;;;19.80;55.40;;;;;;5101186;28;27328;-54
2021/05/03 08:29:55;;;;;;;8.93;7.15;;;19.80;54.20;;;;;;5104123;28;27403;-51
2021/05/03 08:32:41;;;;;;;7.88;6.68;;;19.60;54.50;;;;;;5100881;28;27304;-55
2021/05/03 08:35:26;;;;;;;7.28;6.10;;;19.70;57.00;;;;;;5104077;28;27892;-55
2021/05/03 08:38:10;;;;;;;7.00;6.00;;;19.60;55.60;;;;;;5104464;28;27375;-58
2021/05/03 08:40:58;;;;;;;7.32;5.85;;;19.10;55.60;;;;;;5104376;28;27368;-50
2021/05/03 08:43:46;;;;;;;7.05;6.35;;;19.10;59.20;;;;;;5102433;28;27445;-49
2021/05/03 08:46:32;;;;;;;6.15;5.53;;;19.40;60.10;;;;;;5107602;28;27344;-52
2021/05/03 08:49:33;;;;;;;6.20;5.45;;;19.70;57.80;;;;;;5107078;28;27356;-53
2021/05/03 08:52:37;;;;;;;5.75;5.00;;;19.70;58.30;;;;;;5095067;28;27467;-54
2021/05/03 08:55:21;;;;;;;5.40;4.65;;;20.10;60.00;;;;;;5107344;28;27442;-58
2021/05/03 08:58:09;;;;;;;6.80;4.28;;;20.10;59.60;;;;;;5088962;28;27487;-57
2021/05/03 09:00:54;;;;;;;5.03;3.88;;;19.60;59.70;;;;;;5107379;28;27541;-58
2021/05/03 09:03:41;;;;;;;4.85;4.10;;;19.00;57.20;;;;;;5103300;28;27407;-57
2021/05/03 09:06:25;;;;;;;7.07;4.32;;;18.50;61.00;;;;;;5107467;28;27445;-49
2021/05/03 09:09:11;;;;;;;4.57;3.92;;;18.40;62.10;;;;;;5107156;28;27485;-58
2021/05/03 09:12:08;;;;;;;5.38;3.85;;;18.50;63.50;;;;;;5089083;28;27376;-52
2021/05/03 09:15:03;;;;;;;4.53;3.70;;;18.80;62.00;;;;;;5107068;28;27426;-55
2021/05/03 09:17:49;;;;;;;4.22;3.35;;;19.40;61.80;;;;;;5092103;28;27491;-53
2021/05/03 09:20:34;;;;;;;5.85;3.20;;;20.10;59.80;;;;;;5104152;28;27364;-58
2021/05/03 09:23:23;;;;;;;4.15;3.15;;;20.70;56.90;;;;;;5106248;28;27412;-58
2021/05/03 09:26:32;;;;;;;6.60;3.17;;;21.10;55.90;;;;;;5104038;28;27546;-55
2021/05/03 09:29:34;;;;;;;3.25;2.92;;;21.60;54.50;;;;;;5107126;28;27359;-56
2021/05/03 09:32:20;;;;;;;4.88;3.45;;;21.90;52.80;;;;;;5106739;28;27444;-54
2021/05/03 09:35:05;;;;;;;5.35;3.53;;;21.80;52.50;;;;;;5106256;28;27494;-56
2021/05/03 09:37:50;;;;;;;5.20;3.05;;;21.30;54.00;;;;;;5107064;28;27462;-55
2021/05/03 09:40:40;;;;;;;6.78;3.28;;;20.80;56.10;;;;;;5106703;28;27412;-51
2021/05/03 09:43:27;;;;;;;3.33;2.97;;;20.30;56.00;;;;;;5106601;28;27361;-56
2021/05/03 09:46:34;;;;;;;3.97;3.03;;;19.70;58.20;;;;;;5106547;28;27437;-56
2021/05/03 09:49:20;;;;;;;4.95;2.75;;;19.30;59.20;;;;;;5104595;28;27493;-56
2021/05/03 09:52:08;;;;;;;3.45;2.90;;;19.10;59.70;;;;;;5106553;28;27420;-49
2021/05/03 09:54:53;;;;;;;11.95;2.95;;;18.80;59.80;;;;;;5105952;27;27344;-53
2021/05/03 09:57:38;;;;;;;3.97;3.03;;;18.70;59.30;;;;;;5106679;28;27326;-50
2021/05/03 10:00:34;;;;;;;5.25;2.85;;;18.70;59.50;;;;;;5105878;28;27352;-55
2021/05/03 10:03:32;;;;;;;3.15;2.63;;;18.50;57.30;;;;;;5106541;28;27369;-52
2021/05/03 10:06:17;;;;;;;3.13;2.63;;;18.50;59.00;;;;;;5106527;28;27403;-52
2021/05/03 10:09:03;;;;;;;3.20;2.67;;;18.20;59.20;;;;;;5106495;28;27427;-50
2021/05/03 10:11:48;;;;;;;3.05;2.65;;;18.00;59.20;;;;;;5106588;28;27463;-51
2021/05/03 10:14:33;;;;;;;3.63;2.90;;;17.80;59.60;;;;;;5105410;28;27408;-50
2021/05/03 10:17:18;;;;;;;2.78;2.40;;;17.70;61.40;;;;;;5075022;28;27476;-52
2021/05/03 10:20:03;;;;;;;3.75;2.80;;;17.60;62.30;;;;;;5106123;28;27419;-53
2021/05/03 10:22:53;;;;;;;3.60;2.80;;;17.60;62.00;;;;;;5106128;28;27450;-54
2021/05/03 10:25:37;;;;;;;3.13;2.58;;;17.50;59.50;;;;;;5106059;28;27319;-55
2021/05/03 10:28:22;;;;;;;2.75;2.50;;;17.50;59.10;;;;;;5105429;28;27384;-55
2021/05/03 10:31:11;;;;;;;3.83;2.30;;;17.90;61.40;;;;;;5076297;28;27502;-55
2021/05/03 10:33:56;;;;;;;2.83;2.35;;;18.20;60.00;;;;;;5102578;28;27485;-58
2021/05/03 10:36:40;;;;;;;3.17;2.80;;;18.30;59.20;;;;;;5106091;28;27316;-52
2021/05/03 10:39:29;;;;;;;3.42;2.88;;;18.30;59.00;;;;;;5101619;28;27324;-55
2021/05/03 10:42:13;;;;;;;3.70;2.38;;;18.20;58.60;;;;;;5105884;28;27470;-53
2021/05/03 10:45:19;;;;;;;4.70;2.20;;;18.10;59.70;;;;;;5105539;28;27430;-55
2021/05/03 10:48:28;;;;;;;3.20;2.72;;;17.80;57.00;;;;;;5105586;28;27474;-54
2021/05/03 10:51:34;;;;;;;2.15;1.98;;;17.60;57.40;;;;;;5105492;28;27328;-53
2021/05/03 10:54:46;;;;;;;2.53;2.20;;;17.50;58.90;;;;;;5102197;28;27367;-57
2021/05/03 10:57:27;;;;;;;3.05;2.40;;;17.40;59.80;;;;;;5102463;28;27469;-56
2021/05/03 11:00:28;;;;;;;3.63;2.50;;;17.40;61.00;;;;;;5105433;28;27416;-52
2021/05/03 11:03:12;;;;;;;2.40;1.80;;;17.40;60.20;;;;;;5105571;28;27391;-55
2021/05/03 11:05:58;;;;;;;2.72;2.28;;;17.40;60.20;;;;;;5104346;28;27418;-51
2021/05/03 11:08:42;;;;;;;2.10;1.80;;;17.50;60.80;;;;;;5104969;28;27332;-55
2021/05/03 11:11:27;;;;;;;3.95;2.20;;;17.50;61.40;;;;;;5104339;28;27376;-54
2021/05/03 11:14:15;;;;;;;2.80;2.50;;;17.70;63.80;;;;;;5090461;28;27869;-51
2021/05/03 11:17:14;;;;;;;4.28;2.03;;;18.00;62.60;;;;;;5105232;28;27425;-51
2021/05/03 11:22:50;;;;;;;2.83;2.17;;;18.90;63.00;;;;;;5101363;28;27441;-51
2021/05/03 11:25:36;;;;;;;4.07;2.10;;;19.30;63.80;;;;;;5105074;28;27855;-52
2021/05/03 11:28:24;;;;;;;2.17;1.88;;;19.40;58.60;;;;;;5105275;28;27374;-51
2021/05/03 11:31:17;;;;;;;2.42;1.85;;;19.20;57.30;;;;;;5101553;28;27394;-52
2021/05/03 11:34:10;;;;;;;2.53;1.65;;;19.00;57.80;;;;;;5104959;28;27421;-53
2021/05/03 11:36:58;;;;;;;2.63;1.70;;;18.80;58.50;;;;;;5104359;28;27391;-55
2021/05/03 11:45:15;;;;;;;2.42;1.80;;;18.20;56.80;;;;;;5104335;28;27451;-53
2021/05/03 11:48:00;;;;;;;3.50;2.47;;;18.30;56.00;;;;;;5105004;28;27592;-50
2021/05/03 11:50:45;;;;;;;5.15;1.80;;;18.30;57.30;;;;;;5104507;28;27434;-54
2021/05/03 11:53:41;;;;;;;2.13;1.88;;;18.30;57.30;;;;;;5104717;28;27430;-54
2021/05/03 11:56:27;;;;;;;1.73;1.60;;;18.20;58.20;;;;;;5104870;28;27438;-50
2021/05/03 11:59:16;;;;;;;3.97;2.00;;;18.40;60.40;;;;;;5104817;28;27331;-52
2021/05/03 12:02:08;;;;;;;3.40;2.20;;;18.70;60.40;;;;;;5104761;28;27385;-52
2021/05/03 12:04:53;;;;;;;2.90;2.15;;;18.70;58.40;;;;;;5104564;28;27425;-51
2021/05/03 12:07:38;;;;;;;3.42;1.60;;;18.70;59.70;;;;;;5104093;28;27384;-54
2021/05/03 12:10:23;;;;;;;2.28;1.85;;;18.90;58.80;;;;;;5104492;28;27322;-53
2021/05/03 12:13:19;;;;;;;2.88;2.08;;;19.00;58.20;;;;;;5104366;28;27336;-50
2021/05/03 12:16:04;;;;;;;1.50;1.40;;;19.20;59.90;;;;;;5104432;28;27329;-53
2021/05/03 12:18:49;;;;;;;2.72;1.85;;;19.40;60.20;;;;;;5106939;27;27366;-50
2021/05/03 12:21:33;;;;;;;1.90;1.75;;;19.50;61.10;;;;;;5107982;28;28055;-53
2021/05/03 12:24:19;;;;;;;2.30;1.83;;;19.50;53.80;;;;;;5108217;28;27425;-52
2021/05/03 12:27:04;;;;;;;2.40;1.80;;;19.40;57.20;;;;;;5107384;28;27389;-51
2021/05/03 12:29:49;;;;;;;2.30;1.95;;;19.50;60.70;;;;;;5107836;28;27324;-53
2021/05/03 12:32:38;;;;;;;5.90;2.00;;;19.50;60.10;;;;;;5104805;28;27308;-50
2021/05/03 12:35:24;;;;;;;1.58;1.40;;;19.40;58.00;;;;;;5107577;28;27573;-52
2021/05/03 12:38:19;;;;;;;2.30;1.50;;;19.40;58.80;;;;;;5107075;28;27411;-57
2021/05/03 12:41:07;;;;;;;3.47;1.55;;;19.30;58.30;;;;;;5104411;28;27600;-51
2021/05/03 12:43:58;;;;;;;1.42;1.33;;;19.30;57.60;;;;;;5107579;28;27382;-53
2021/05/03 12:46:43;;;;;;;3.95;1.70;;;19.30;56.60;;;;;;5107572;28;27418;-53
2021/05/03 12:49:29;;;;;;;1.60;1.50;;;19.30;58.30;;;;;;5075214;28;27459;-54
2021/05/03 12:52:15;;;;;;;1.55;1.40;;;19.40;58.80;;;;;;5107693;28;27405;-52
2021/05/03 12:55:05;;;;;;;1.50;1.35;;;19.40;59.40;;;;;;5092938;28;27853;-55
2021/05/03 12:57:58;;;;;;;1.92;1.83;;;19.50;59.80;;;;;;5107480;28;27355;-53
2021/05/03 13:03:59;;;;;;;1.88;1.70;;;19.70;59.10;;;;;;5107225;28;27466;-51
2021/05/03 13:07:11;;;;;;;3.80;1.90;;;19.80;60.50;;;;;;5107275;28;27336;-52
2021/05/03 13:29:10;;;;;;;6.05;2.45;;;19.80;54.70;;;;;;5105185;27;27403;-56
2021/05/03 13:31:57;;;;;;;6.70;2.60;;;19.80;55.80;;;;;;5106764;28;27465;-53
2021/05/03 13:34:42;;;;;;;3.85;2.08;;;19.90;58.10;;;;;;5106720;28;27458;-54
2021/05/03 13:37:27;;;;;;;5.25;1.88;;;19.80;58.70;;;;;;5106049;28;27486;-54
2021/05/03 13:40:12;;;;;;;5.53;2.00;;;19.70;58.20;;;;;;5106685;28;27479;-54
2021/05/03 13:42:58;;;;;;;2.78;2.00;;;19.60;57.10;;;;;;5106945;28;27941;-53
2021/05/03 13:45:43;;;;;;;9.18;2.97;;;19.50;56.20;;;;;;5106865;28;27451;-54
2021/05/03 13:48:28;;;;;;;6.57;3.10;;;19.50;57.20;;;;;;5106872;28;27411;-54
2021/05/03 13:51:13;;;;;;;10.20;2.90;;;19.30;58.50;;;;;;5106250;28;27407;-55
2021/05/03 13:53:58;;;;;;;6.40;2.83;;;19.20;61.40;;;;;;5106736;28;27457;-51
2021/05/03 13:56:43;;;;;;;9.48;3.55;;;19.00;62.30;;;;;;5103945;28;27475;-57
2021/05/03 13:59:27;;;;;;;6.80;2.45;;;19.00;64.50;;;;;;5106403;28;27378;-57
2021/05/03 14:02:12;;;;;;;5.25;2.85;;;19.10;65.70;;;;;;5106251;28;27470;-57
2021/05/03 14:04:58;;;;;;;4.68;1.98;;;19.10;64.20;;;;;;5105425;28;27475;-57
2021/05/03 14:07:43;;;;;;;3.58;1.80;;;19.00;62.50;;;;;;5106449;28;27427;-65
2021/05/03 14:10:27;;;;;;;3.90;2.10;;;19.00;63.30;;;;;;5102987;28;27481;-63
2021/05/03 14:13:12;;;;;;;3.53;1.83;;;18.90;62.20;;;;;;5106132;28;26863;-60
2021/05/03 14:15:56;;;;;;;6.90;1.80;;;18.90;63.60;;;;;;5103034;28;27364;-60
2021/05/03 14:18:41;;;;;;;7.03;1.90;;;19.00;63.60;;;;;;5106311;28;27352;-60
2021/05/03 14:21:26;;;;;;;2.35;1.60;;;19.00;63.20;;;;;;5102339;28;27379;-60
2021/05/03 14:24:10;;;;;;;4.28;1.40;;;19.10;61.80;;;;;;5105579;28;27379;-60
2021/05/03 14:26:56;;;;;;;3.72;1.45;;;19.20;58.10;;;;;;5105235;28;27332;-60
2021/05/03 14:29:48;;;;;;;3.67;1.42;;;19.20;57.30;;;;;;5105812;28;27456;-60
2021/05/03 14:32:40;;;;;;;1.63;1.25;;;19.20;57.40;;;;;;5106101;28;27367;-60
2021/05/03 14:35:26;;;;;;;3.22;1.73;;;19.10;55.00;;;;;;5105739;28;27471;-59
2021/05/03 14:38:10;;;;;;;2.58;1.45;;;19.00;57.20;;;;;;5105716;28;27959;-59
2021/05/03 14:40:55;;;;;;;2.97;1.40;;;19.00;55.90;;;;;;5105522;27;27478;-59
2021/05/03 14:43:40;;;;;;;2.55;1.50;;;19.00;56.30;;;;;;5104946;28;27477;-60
2021/05/03 14:46:39;;;;;;;2.20;1.42;;;19.00;56.20;;;;;;5105589;28;26864;-60
2021/05/03 14:52:21;;;;;;;2.80;1.50;;;18.80;56.60;;;;;;5101508;28;27472;-59
2021/05/03 14:55:07;;;;;;;1.90;1.23;;;18.80;57.20;;;;;;5105786;28;27461;-60
2021/05/03 14:57:52;;;;;;;1.73;1.23;;;18.90;56.30;;;;;;5105652;28;27469;-59
2021/05/03 15:00:36;;;;;;;1.48;1.38;;;19.00;56.00;;;;;;5105637;28;27486;-59
2021/05/03 15:03:22;;;;;;;1.83;1.20;;;19.10;55.50;;;;;;5105517;28;27497;-59
2021/05/03 15:06:09;;;;;;;1.40;1.30;;;19.20;56.30;;;;;;5104623;28;27478;-60
2021/05/03 15:08:54;;;;;;;2.75;1.45;;;19.30;55.70;;;;;;5104529;28;27455;-60
2021/05/03 15:11:38;;;;;;;1.35;1.25;;;19.50;54.60;;;;;;5105122;28;27483;-60
2021/05/03 15:14:30;;;;;;;2.28;1.45;;;19.50;54.50;;;;;;5105647;28;27511;-61
2021/05/03 15:23:29;;;;;;;2.97;1.20;;;19.50;51.30;;;;;;5093849;27;28049;-61